Time;durP1;ratioP1;P1;durP2;ratioP2;P2;SDS_P1;SDS_P2;PMS_P1;PMS_P2;Temp;Humidity;BMP_temperature;BMP_pressure;BME280_temperature;BME280_humidity;BME280_pressure;Samples;Min_cycle;Max_cycle;Signal;HPM_P1;HPM_P2
2023/10/21 00:00:21;;;;;;;48.47;22.88;;;11.60;99.90;;;;;;6173676;23;20026;-83
2023/10/21 00:02:47;;;;;;;47.88;22.77;;;11.70;99.90;;;;;;6151118;23;20052;-83
2023/10/21 00:05:13;;;;;;;38.58;20.55;;;11.60;99.90;;;;;;6149870;23;20414;-83
2023/10/21 00:07:38;;;;;;;42.83;20.95;;;11.60;99.90;;;;;;6151523;23;20025;-83
2023/10/21 00:10:07;;;;;;;46.40;22.73;;;11.60;99.90;;;;;;6148346;23;20031;-83
2023/10/21 00:12:34;;;;;;;58.00;24.35;;;11.60;99.90;;;;;;6176484;23;20092;-83
2023/10/21 00:14:59;;;;;;;83.53;25.08;;;11.70;99.90;;;;;;6176246;23;20540;-83
2023/10/21 00:17:26;;;;;;;44.33;22.42;;;11.80;99.90;;;;;;6151482;23;20059;-83
2023/10/21 00:19:52;;;;;;;54.38;23.60;;;11.70;99.90;;;;;;6176052;23;20397;-83
2023/10/21 00:22:18;;;;;;;41.17;21.55;;;11.80;99.90;;;;;;6151092;23;20115;-83
2023/10/21 00:24:44;;;;;;;37.20;20.40;;;11.80;99.90;;;;;;6149352;23;20009;-83
2023/10/21 00:27:09;;;;;;;41.50;21.42;;;11.80;99.90;;;;;;6175638;23;20021;-83
2023/10/21 00:29:35;;;;;;;46.25;21.65;;;11.90;99.90;;;;;;6150217;23;20067;-83
2023/10/21 00:32:04;;;;;;;36.88;19.15;;;12.00;99.90;;;;;;6176036;23;20078;-83
2023/10/21 00:34:30;;;;;;;40.97;21.27;;;12.20;99.90;;;;;;6151048;23;20031;-83
2023/10/21 00:36:56;;;;;;;37.10;19.10;;;12.10;99.90;;;;;;6151243;23;20055;-83
2023/10/21 00:39:22;;;;;;;38.05;20.52;;;12.10;99.90;;;;;;6150431;23;20016;-83
2023/10/21 00:41:48;;;;;;;37.42;20.20;;;12.10;99.90;;;;;;6173394;23;20024;-83
2023/10/21 00:44:13;;;;;;;45.75;20.73;;;12.10;99.90;;;;;;6174198;23;20035;-83
2023/10/21 00:46:41;;;;;;;44.38;21.77;;;12.00;99.90;;;;;;6173628;23;20016;-83
2023/10/21 00:49:06;;;;;;;46.50;23.33;;;12.00;99.90;;;;;;6174766;23;20313;-83
2023/10/21 00:51:33;;;;;;;40.13;20.83;;;12.00;99.90;;;;;;6148717;23;20111;-83
2023/10/21 00:54:00;;;;;;;47.25;23.08;;;12.10;99.90;;;;;;6150572;23;20013;-83
2023/10/21 00:56:26;;;;;;;50.67;23.85;;;12.00;99.90;;;;;;6172338;23;20024;-83
2023/10/21 00:58:52;;;;;;;43.13;22.27;;;12.10;99.90;;;;;;6175708;23;20008;-83
2023/10/21 01:01:17;;;;;;;51.05;23.00;;;12.10;99.90;;;;;;6175602;23;20032;-83
2023/10/21 01:03:43;;;;;;;47.00;22.88;;;11.90;99.90;;;;;;6175786;23;20009;-83
2023/10/21 01:06:09;;;;;;;60.00;25.65;;;11.90;99.90;;;;;;6175096;23;20414;-83
2023/10/21 01:08:45;;;;;;;74.72;25.58;;;11.80;99.90;;;;;;6175745;23;20388;-83
2023/10/21 01:11:11;;;;;;;46.58;24.27;;;11.70;99.90;;;;;;6148452;23;20346;-83
2023/10/21 01:13:37;;;;;;;46.17;22.90;;;11.80;99.90;;;;;;6151066;23;20020;-83
2023/10/21 01:16:03;;;;;;;47.83;23.25;;;11.80;99.90;;;;;;6175508;23;20036;-83
2023/10/21 01:18:33;;;;;;;51.90;25.92;;;11.80;99.90;;;;;;6151065;23;20012;-83
2023/10/21 01:21:01;;;;;;;42.28;23.20;;;11.80;99.90;;;;;;6149921;23;20021;-83
2023/10/21 01:23:27;;;;;;;73.22;28.40;;;11.70;99.90;;;;;;6151568;23;20064;-83
2023/10/21 01:25:53;;;;;;;51.60;24.88;;;11.70;99.90;;;;;;6172452;23;20513;-83
2023/10/21 01:28:19;;;;;;;46.97;23.88;;;11.60;99.90;;;;;;6150933;23;20012;-83
2023/10/21 01:30:45;;;;;;;66.22;26.88;;;11.40;99.90;;;;;;6150863;23;20012;-83
2023/10/21 01:33:11;;;;;;;79.28;27.73;;;11.40;99.90;;;;;;6176249;23;20020;-83
2023/10/21 01:35:37;;;;;;;55.35;24.75;;;11.40;99.90;;;;;;6175550;23;20366;-83
2023/10/21 01:38:02;;;;;;;49.85;25.90;;;11.30;99.90;;;;;;6176177;23;20095;-83
2023/10/21 01:40:28;;;;;;;45.28;24.52;;;11.20;99.90;;;;;;6172775;23;20091;-83
2023/10/21 01:42:54;;;;;;;83.57;27.33;;;11.30;99.90;;;;;;6178133;23;20048;-83
2023/10/21 01:45:19;;;;;;;63.15;27.67;;;11.10;99.90;;;;;;6177429;23;20472;-83
2023/10/21 01:47:45;;;;;;;57.97;25.55;;;11.10;99.90;;;;;;6154086;23;20019;-84
2023/10/21 01:50:11;;;;;;;126.53;33.92;;;11.10;99.90;;;;;;6152923;23;20043;-83
2023/10/21 01:52:38;;;;;;;51.65;26.17;;;11.00;99.90;;;;;;6151658;23;20020;-84
2023/10/21 01:55:11;;;;;;;119.20;30.02;;;10.90;99.90;;;;;;6172845;23;20020;-83
2023/10/21 01:57:38;;;;;;;229.65;39.92;;;10.90;99.90;;;;;;6151428;23;20071;-83
2023/10/21 02:00:08;;;;;;;55.00;27.45;;;11.00;99.90;;;;;;6150445;23;20024;-83
2023/10/21 02:02:38;;;;;;;304.75;43.63;;;11.00;99.90;;;;;;6150124;23;20008;-83
2023/10/21 02:05:05;;;;;;;148.30;36.88;;;11.00;99.90;;;;;;6175517;23;20143;-83
2023/10/21 02:07:37;;;;;;;162.20;39.60;;;10.90;99.90;;;;;;6151574;23;20021;-83
2023/10/21 02:10:04;;;;;;;102.93;33.55;;;10.90;99.90;;;;;;6147275;23;20017;-83
2023/10/21 02:12:31;;;;;;;95.95;35.17;;;11.10;99.90;;;;;;6151248;23;20465;-83
2023/10/21 02:14:56;;;;;;;99.88;34.42;;;11.10;99.90;;;;;;6175317;23;20441;-83
2023/10/21 02:17:22;;;;;;;118.30;36.10;;;11.10;99.90;;;;;;6175881;23;20016;-83
2023/10/21 02:19:56;;;;;;;85.03;33.08;;;11.00;99.90;;;;;;6174884;23;20021;-83
2023/10/21 02:22:25;;;;;;;61.03;30.15;;;11.00;99.90;;;;;;6175547;23;20070;-83
2023/10/21 02:24:53;;;;;;;190.85;38.00;;;11.00;99.90;;;;;;6173602;23;20372;-83
2023/10/21 02:27:25;;;;;;;72.20;30.42;;;11.10;99.90;;;;;;6180778;23;20400;-83
2023/10/21 02:29:50;;;;;;;150.52;33.05;;;11.00;99.90;;;;;;6184522;23;20739;-83
2023/10/21 02:32:16;;;;;;;100.85;33.30;;;11.00;99.90;;;;;;6160465;23;20017;-87
2023/10/21 02:34:42;;;;;;;94.35;32.75;;;11.00;99.90;;;;;;6157159;23;20015;-83
2023/10/21 02:37:08;;;;;;;87.82;31.77;;;11.00;99.90;;;;;;6151490;23;20052;-83
2023/10/21 02:39:34;;;;;;;65.65;28.55;;;11.00;99.90;;;;;;6149929;23;20013;-83
2023/10/21 02:42:00;;;;;;;89.07;29.52;;;10.90;99.90;;;;;;6152038;23;20108;-83
2023/10/21 02:44:27;;;;;;;59.10;25.63;;;10.80;99.90;;;;;;6177416;23;20122;-83
2023/10/21 02:46:52;;;;;;;73.53;27.98;;;10.90;99.90;;;;;;6152710;23;20489;-83
2023/10/21 02:49:18;;;;;;;72.38;27.73;;;10.90;99.90;;;;;;6151925;23;20350;-83
2023/10/21 02:51:44;;;;;;;59.63;27.25;;;10.80;99.90;;;;;;6176974;23;20016;-84
2023/10/21 02:54:10;;;;;;;66.20;27.83;;;11.00;99.90;;;;;;6152908;23;20417;-83
2023/10/21 02:56:36;;;;;;;72.25;27.75;;;10.90;99.90;;;;;;6174833;23;20484;-83
2023/10/21 02:59:02;;;;;;;62.20;25.92;;;10.90;99.90;;;;;;6177261;23;20100;-83
2023/10/21 03:01:28;;;;;;;72.28;28.75;;;10.80;99.90;;;;;;6152528;23;20107;-83
2023/10/21 03:03:55;;;;;;;409.63;43.17;;;10.80;99.90;;;;;;6152650;23;20130;-83
2023/10/21 03:06:23;;;;;;;61.00;25.83;;;10.80;99.90;;;;;;6176913;23;20013;-83
2023/10/21 03:08:49;;;;;;;54.92;24.92;;;10.90;99.90;;;;;;6176966;23;20092;-83
2023/10/21 03:11:15;;;;;;;132.82;29.85;;;10.80;99.90;;;;;;6174589;23;20019;-83
2023/10/21 03:13:41;;;;;;;72.47;27.98;;;10.90;99.90;;;;;;6177157;23;20298;-83
2023/10/21 03:16:08;;;;;;;53.53;24.48;;;10.80;99.90;;;;;;6152554;23;20017;-83
2023/10/21 03:18:36;;;;;;;70.97;26.58;;;10.80;99.90;;;;;;6152402;23;20429;-83
2023/10/21 03:21:03;;;;;;;63.30;25.38;;;10.90;99.90;;;;;;6146788;23;20075;-83
2023/10/21 03:23:29;;;;;;;60.90;25.63;;;10.80;99.90;;;;;;6123481;23;20013;-83
2023/10/21 03:25:57;;;;;;;59.85;25.13;;;10.80;99.90;;;;;;6144381;23;20100;-83
2023/10/21 03:28:23;;;;;;;56.75;26.90;;;10.90;99.90;;;;;;6147730;23;20021;-83
2023/10/21 03:30:50;;;;;;;49.40;24.00;;;10.80;99.90;;;;;;6121962;23;20017;-83
2023/10/21 03:33:16;;;;;;;57.05;26.35;;;10.80;99.90;;;;;;6147598;23;20032;-83
2023/10/21 03:35:56;;;;;;;64.22;27.33;;;10.80;99.90;;;;;;6146933;23;20116;-83
2023/10/21 03:38:22;;;;;;;62.83;26.70;;;10.80;99.90;;;;;;6122632;23;20060;-83
2023/10/21 03:40:58;;;;;;;74.20;31.38;;;10.80;99.90;;;;;;6143764;23;20017;-83
2023/10/21 03:43:26;;;;;;;88.25;31.92;;;10.90;99.90;;;;;;6146684;23;20339;-83
2023/10/21 03:45:52;;;;;;;59.03;29.48;;;10.80;99.90;;;;;;6146481;23;20016;-84
2023/10/21 03:48:18;;;;;;;72.63;30.45;;;10.80;99.90;;;;;;6147077;23;20013;-83
2023/10/21 03:50:44;;;;;;;72.85;29.30;;;10.80;99.90;;;;;;6146506;23;20449;-83
2023/10/21 03:53:09;;;;;;;98.65;31.75;;;10.80;99.90;;;;;;6123082;23;20032;-83
2023/10/21 03:55:35;;;;;;;85.93;31.58;;;10.70;99.90;;;;;;6144495;23;20063;-84
2023/10/21 03:58:01;;;;;;;64.53;28.17;;;10.70;99.90;;;;;;6147285;23;20394;-84
2023/10/21 04:00:27;;;;;;;62.30;28.17;;;10.80;99.90;;;;;;6146621;23;20535;-83
2023/10/21 04:02:52;;;;;;;112.15;32.17;;;10.70;99.90;;;;;;6147982;23;20009;-83
2023/10/21 04:05:18;;;;;;;71.55;29.27;;;10.70;99.90;;;;;;6147458;23;20045;-83
2023/10/21 04:07:45;;;;;;;92.55;32.38;;;10.70;99.90;;;;;;6148030;23;20017;-83
2023/10/21 04:10:11;;;;;;;88.75;32.92;;;10.70;99.90;;;;;;6143502;23;20013;-83
2023/10/21 04:12:39;;;;;;;72.97;30.70;;;10.60;99.90;;;;;;6146974;23;20351;-83
2023/10/21 04:15:07;;;;;;;59.88;28.30;;;10.60;99.90;;;;;;6146042;23;20013;-83
2023/10/21 04:17:33;;;;;;;63.95;28.50;;;10.60;99.90;;;;;;6147777;23;20048;-83
2023/10/21 04:19:59;;;;;;;59.92;27.13;;;10.60;99.90;;;;;;6145954;23;20523;-83
2023/10/21 04:22:25;;;;;;;64.30;28.23;;;10.60;99.90;;;;;;6146984;23;20020;-83
2023/10/21 04:24:50;;;;;;;69.38;29.17;;;10.70;99.90;;;;;;6168570;23;20016;-83
2023/10/21 04:27:16;;;;;;;73.78;26.75;;;10.60;99.90;;;;;;6144589;23;20017;-83
2023/10/21 04:29:41;;;;;;;111.78;29.55;;;10.50;99.90;;;;;;6145115;23;20012;-83
2023/10/21 04:32:07;;;;;;;61.95;26.17;;;10.50;99.90;;;;;;6145773;23;20162;-83
2023/10/21 04:34:33;;;;;;;191.85;34.63;;;10.60;99.90;;;;;;6145674;23;20071;-83
2023/10/21 04:36:59;;;;;;;61.10;25.08;;;10.60;99.90;;;;;;6121363;23;20398;-83
2023/10/21 04:39:24;;;;;;;58.47;25.35;;;10.50;99.90;;;;;;6120230;23;20626;-83
2023/10/21 04:41:50;;;;;;;72.35;26.67;;;10.50;99.90;;;;;;6142773;23;20092;-83
2023/10/21 04:44:16;;;;;;;246.30;33.38;;;10.50;99.90;;;;;;6146298;23;20020;-83
2023/10/21 04:46:42;;;;;;;80.28;28.58;;;10.50;99.90;;;;;;6145773;23;20012;-83
2023/10/21 04:49:08;;;;;;;175.82;33.10;;;10.40;99.90;;;;;;6146187;23;20013;-83
2023/10/21 04:51:33;;;;;;;179.02;33.70;;;10.50;99.90;;;;;;6144695;23;20366;-83
2023/10/21 04:53:59;;;;;;;140.50;27.73;;;10.40;99.90;;;;;;6146106;23;20330;-83
2023/10/21 04:56:25;;;;;;;55.50;24.60;;;10.40;99.90;;;;;;6166687;23;20455;-83
2023/10/21 04:58:51;;;;;;;56.20;23.33;;;10.40;99.90;;;;;;6146065;23;20021;-83
2023/10/21 05:01:23;;;;;;;50.85;22.92;;;10.30;99.90;;;;;;6152373;23;20028;-83
2023/10/21 05:04:22;;;;;;;80.88;23.70;;;10.40;99.90;;;;;;6078479;23;1196088;-83
2023/10/21 05:06:49;;;;;;;46.45;22.48;;;10.40;99.90;;;;;;6148445;23;20017;-83
2023/10/21 05:09:16;;;;;;;74.28;21.80;;;10.50;99.90;;;;;;6153685;23;20013;-83
2023/10/21 05:11:59;;;;;;;48.72;20.50;;;10.60;99.90;;;;;;6101882;23;20071;-83
2023/10/21 05:14:26;;;;;;;61.67;22.67;;;10.50;99.90;;;;;;6151012;23;20017;-83
2023/10/21 05:17:25;;;;;;;55.65;22.77;;;10.40;99.90;;;;;;6152256;23;20013;-84
2023/10/21 05:20:03;;;;;;;56.42;21.90;;;10.50;99.90;;;;;;6129483;23;20024;-83
2023/10/21 05:22:36;;;;;;;40.50;21.25;;;10.50;99.90;;;;;;6154652;23;20017;-84
2023/10/21 05:25:20;;;;;;;56.92;24.80;;;10.50;99.90;;;;;;6133028;23;20017;-84
2023/10/21 05:27:45;;;;;;;64.95;23.77;;;10.60;99.90;;;;;;6130506;23;20013;-83
2023/10/21 05:30:12;;;;;;;51.72;24.52;;;10.70;99.90;;;;;;6122432;23;20163;-83
2023/10/21 05:32:38;;;;;;;38.65;21.33;;;10.70;99.90;;;;;;6148167;23;20177;-83
2023/10/21 05:35:08;;;;;;;46.15;22.05;;;10.60;99.90;;;;;;6123225;23;20009;-84
2023/10/21 05:37:35;;;;;;;49.70;23.27;;;10.70;99.90;;;;;;6148634;23;20439;-83
2023/10/21 05:40:04;;;;;;;55.50;23.33;;;10.70;99.90;;;;;;6145997;23;20096;-83
2023/10/21 05:42:30;;;;;;;51.92;21.27;;;10.80;99.90;;;;;;6148524;23;20539;-83
2023/10/21 05:44:56;;;;;;;65.55;23.27;;;10.90;99.90;;;;;;6148550;23;20087;-83
2023/10/21 05:47:21;;;;;;;52.80;20.98;;;10.90;99.90;;;;;;6124781;23;20059;-83
2023/10/21 05:49:47;;;;;;;48.42;19.60;;;10.90;99.90;;;;;;6123852;23;20327;-84
2023/10/21 05:52:14;;;;;;;39.72;14.85;;;10.90;99.90;;;;;;6124030;23;20260;-83
2023/10/21 05:54:40;;;;;;;33.03;15.35;;;10.90;99.90;;;;;;6145926;23;20441;-83
2023/10/21 05:57:06;;;;;;;30.13;14.02;;;11.00;99.90;;;;;;6147851;23;20607;-83
2023/10/21 05:59:32;;;;;;;30.42;13.25;;;11.10;99.90;;;;;;6148174;23;20009;-83
2023/10/21 06:01:57;;;;;;;31.73;13.00;;;11.10;99.90;;;;;;6122953;23;20311;-83
2023/10/21 06:04:23;;;;;;;30.33;12.48;;;11.30;99.90;;;;;;6147483;23;20147;-83
2023/10/21 06:06:54;;;;;;;29.83;12.32;;;11.30;99.90;;;;;;6147170;23;20592;-83
2023/10/21 06:09:26;;;;;;;33.33;13.10;;;11.30;99.90;;;;;;6146814;23;20013;-83
2023/10/21 06:11:52;;;;;;;34.60;13.52;;;11.40;99.90;;;;;;6145005;23;20407;-83
2023/10/21 06:14:18;;;;;;;34.78;12.57;;;11.40;99.90;;;;;;6123251;23;20023;-84
2023/10/21 06:16:44;;;;;;;37.72;13.18;;;11.40;99.90;;;;;;6172967;23;20092;-83
2023/10/21 06:19:10;;;;;;;31.65;13.02;;;11.30;99.90;;;;;;6147884;23;20017;-83
2023/10/21 06:21:37;;;;;;;31.00;12.52;;;11.40;99.90;;;;;;6172195;23;20009;-84
2023/10/21 06:24:06;;;;;;;32.95;12.48;;;11.50;99.90;;;;;;6123815;23;20136;-84
2023/10/21 06:26:32;;;;;;;37.03;12.15;;;11.50;99.90;;;;;;6143824;23;20013;-84
2023/10/21 06:28:58;;;;;;;30.98;11.57;;;11.50;99.90;;;;;;6123509;23;20060;-84
2023/10/21 06:31:25;;;;;;;31.00;11.18;;;11.60;99.90;;;;;;6172720;23;20378;-84
2023/10/21 06:33:50;;;;;;;32.50;11.75;;;11.60;99.90;;;;;;6148314;23;20017;-83
2023/10/21 06:36:17;;;;;;;29.48;11.30;;;11.60;99.90;;;;;;6122384;23;20024;-84
2023/10/21 06:38:43;;;;;;;29.42;11.80;;;11.60;99.90;;;;;;6147149;23;20512;-84
2023/10/21 06:41:10;;;;;;;26.70;11.30;;;11.70;99.90;;;;;;6120125;23;20013;-83
2023/10/21 06:43:36;;;;;;;33.83;12.10;;;11.60;99.90;;;;;;6123285;23;20092;-84
2023/10/21 06:46:02;;;;;;;29.25;11.90;;;11.80;99.90;;;;;;6171934;23;20051;-84
2023/10/21 06:48:31;;;;;;;26.92;11.80;;;11.70;99.90;;;;;;6123160;23;20020;-83
2023/10/21 06:50:57;;;;;;;30.70;11.65;;;11.80;99.90;;;;;;6146721;23;20201;-83
2023/10/21 06:53:23;;;;;;;32.72;12.15;;;11.80;99.90;;;;;;6147408;23;20350;-83
2023/10/21 06:55:49;;;;;;;30.30;11.75;;;11.80;99.90;;;;;;6120110;23;20216;-83
2023/10/21 06:58:15;;;;;;;30.55;13.02;;;11.90;99.90;;;;;;6123506;23;20017;-83
2023/10/21 07:00:41;;;;;;;30.95;12.18;;;12.00;99.90;;;;;;6122415;23;20334;-83
2023/10/21 07:03:07;;;;;;;32.65;12.18;;;12.10;99.90;;;;;;6117895;23;20411;-83
2023/10/21 07:05:35;;;;;;;30.60;11.65;;;12.10;99.90;;;;;;6117638;23;20025;-84
2023/10/21 07:08:01;;;;;;;31.55;11.95;;;12.10;99.90;;;;;;6118742;23;20056;-84
2023/10/21 07:10:29;;;;;;;28.85;12.27;;;12.20;99.90;;;;;;6114359;23;20512;-84
2023/10/21 07:12:55;;;;;;;25.83;11.52;;;12.20;99.90;;;;;;6117363;23;20467;-83
2023/10/21 07:15:23;;;;;;;28.40;11.55;;;12.40;99.90;;;;;;6117063;23;20017;-84
2023/10/21 07:17:48;;;;;;;26.17;11.27;;;12.40;99.90;;;;;;6118614;23;20037;-84
2023/10/21 07:20:14;;;;;;;28.05;11.88;;;12.40;99.90;;;;;;6116940;23;20013;-84
2023/10/21 07:22:44;;;;;;;28.00;12.18;;;12.60;99.90;;;;;;6117886;23;20021;-84
2023/10/21 07:25:10;;;;;;;26.70;11.90;;;12.70;99.90;;;;;;6114070;23;20088;-84
2023/10/21 07:27:36;;;;;;;27.25;12.25;;;12.80;99.90;;;;;;6117845;23;20023;-84
2023/10/21 07:30:04;;;;;;;28.75;12.68;;;12.90;99.90;;;;;;6116036;23;20025;-84
2023/10/21 07:32:30;;;;;;;23.85;11.25;;;13.00;99.90;;;;;;6117790;23;20025;-84
2023/10/21 07:34:55;;;;;;;30.77;11.65;;;12.90;99.90;;;;;;6116599;23;20029;-83
2023/10/21 07:37:21;;;;;;;25.90;12.20;;;13.00;99.90;;;;;;6093428;23;20446;-84
2023/10/21 07:39:47;;;;;;;26.05;11.75;;;13.10;99.90;;;;;;6114786;23;20049;-84
2023/10/21 07:42:14;;;;;;;22.17;11.27;;;13.00;99.90;;;;;;6117057;23;20014;-84
2023/10/21 07:44:41;;;;;;;27.83;12.18;;;13.10;99.90;;;;;;6116680;23;20101;-83
2023/10/21 07:47:07;;;;;;;20.08;11.00;;;13.20;99.90;;;;;;6117881;23;20014;-83
2023/10/21 07:49:33;;;;;;;23.60;11.13;;;13.20;99.90;;;;;;6116423;23;20015;-83
2023/10/21 07:51:59;;;;;;;24.05;11.18;;;13.20;99.90;;;;;;6117454;23;20013;-83
2023/10/21 07:54:25;;;;;;;30.10;11.60;;;13.40;99.90;;;;;;6116586;23;20091;-83
2023/10/21 07:56:52;;;;;;;23.77;11.05;;;13.30;99.90;;;;;;6116529;23;20021;-84
2023/10/21 07:59:19;;;;;;;26.05;11.27;;;13.50;99.90;;;;;;6117380;23;20040;-83
2023/10/21 08:01:45;;;;;;;25.33;11.90;;;13.50;99.90;;;;;;6116658;23;20013;-83
2023/10/21 08:04:11;;;;;;;22.30;11.88;;;13.50;99.90;;;;;;6139061;23;20389;-84
2023/10/21 08:06:37;;;;;;;24.70;10.98;;;13.50;99.90;;;;;;6121575;23;20181;-84
2023/10/21 08:09:04;;;;;;;28.27;12.02;;;13.60;99.90;;;;;;6122203;23;20013;-84
2023/10/21 08:11:31;;;;;;;25.90;11.38;;;13.80;99.90;;;;;;6143269;23;20044;-84
2023/10/21 08:13:56;;;;;;;26.77;12.10;;;13.70;99.90;;;;;;6170844;23;20088;-84
2023/10/21 08:16:22;;;;;;;25.00;11.85;;;13.80;99.90;;;;;;6146435;23;20047;-84
2023/10/21 08:18:50;;;;;;;22.15;10.48;;;13.90;99.90;;;;;;6146507;23;20020;-84
2023/10/21 08:21:16;;;;;;;23.25;11.57;;;14.00;99.90;;;;;;6121398;23;20124;-84
2023/10/21 08:23:42;;;;;;;22.50;10.60;;;13.90;99.90;;;;;;6121391;23;20017;-84
2023/10/21 08:26:07;;;;;;;23.08;9.85;;;13.90;99.90;;;;;;6143625;23;20016;-84
2023/10/21 08:28:33;;;;;;;18.85;9.80;;;14.00;99.90;;;;;;6146336;23;20013;-84
2023/10/21 08:30:58;;;;;;;22.38;9.82;;;14.20;99.90;;;;;;6144730;23;20040;-84
2023/10/21 08:33:24;;;;;;;15.10;8.40;;;14.20;99.90;;;;;;6146072;23;20032;-84
2023/10/21 08:35:50;;;;;;;23.40;9.73;;;14.20;99.90;;;;;;6145115;23;20103;-83
2023/10/21 08:38:16;;;;;;;20.65;9.63;;;14.40;99.90;;;;;;6146765;23;20123;-84
2023/10/21 08:40:46;;;;;;;24.88;10.20;;;14.50;99.90;;;;;;6143089;23;20389;-84
2023/10/21 08:43:19;;;;;;;19.20;9.90;;;14.50;99.90;;;;;;6122195;23;20341;-84
2023/10/21 08:45:47;;;;;;;23.17;10.00;;;14.50;99.90;;;;;;6153476;23;20013;-85
2023/10/21 08:48:53;;;;;;;21.80;10.32;;;14.70;99.90;;;;;;6156669;23;20280;-84
2023/10/21 11:45:12;;;;;;;4.00;1.20;;;15.30;99.90;;;;;;6147927;23;20029;-84
2023/10/21 11:48:02;;;;;;;2.20;1.15;;;15.10;99.90;;;;;;6120348;23;20018;-84
2023/10/21 11:50:33;;;;;;;2.13;0.90;;;15.00;99.90;;;;;;6119361;23;20021;-84
2023/10/21 11:53:03;;;;;;;1.85;0.90;;;15.00;99.90;;;;;;6146062;23;20092;-84
2023/10/21 12:15:01;;;;;;;1.70;0.75;;;15.00;99.90;;;;;;6099882;23;20669;-83
2023/10/21 12:18:05;;;;;;;2.80;1.20;;;15.10;99.90;;;;;;6114160;23;20537;-84
2023/10/21 12:26:38;;;;;;;1.75;0.70;;;15.10;99.90;;;;;;6111662;23;20018;-84
2023/10/21 12:36:42;;;;;;;2.75;1.08;;;15.90;99.90;;;;;;6114711;23;20036;-84
2023/10/21 12:41:41;;;;;;;2.53;0.82;;;16.40;99.90;;;;;;6134149;23;20175;-84
2023/10/21 12:44:13;;;;;;;1.60;0.73;;;16.30;99.90;;;;;;6107935;23;20132;-83
2023/10/21 12:46:43;;;;;;;2.42;0.60;;;16.50;99.90;;;;;;6142292;23;20525;-84
2023/10/21 12:49:17;;;;;;;1.08;0.70;;;16.10;99.90;;;;;;6169063;23;20111;-83
2023/10/21 12:51:43;;;;;;;3.15;0.75;;;16.00;99.90;;;;;;6118949;23;20021;-84
2023/10/21 12:54:11;;;;;;;2.10;0.75;;;15.80;99.90;;;;;;6144242;23;20040;-84
2023/10/21 12:56:38;;;;;;;2.90;0.73;;;15.90;99.90;;;;;;6115476;23;20013;-83
2023/10/21 12:59:06;;;;;;;1.98;0.70;;;15.70;99.90;;;;;;6119237;23;20017;-84
2023/10/21 13:01:38;;;;;;;3.72;0.70;;;15.80;99.90;;;;;;6167869;23;20308;-84
2023/10/21 13:04:04;;;;;;;2.83;0.77;;;16.00;99.90;;;;;;6143280;23;20016;-83
2023/10/21 13:06:30;;;;;;;1.40;0.75;;;16.10;99.90;;;;;;6141166;23;20102;-83
2023/10/21 13:08:59;;;;;;;1.25;0.80;;;16.30;99.90;;;;;;6175177;23;20458;-84
2023/10/21 13:11:25;;;;;;;2.00;0.60;;;16.20;99.90;;;;;;6143991;23;20017;-84
2023/10/21 13:13:51;;;;;;;3.40;0.90;;;15.90;99.90;;;;;;6143780;23;20505;-83
2023/10/21 13:16:17;;;;;;;1.52;0.80;;;15.90;99.90;;;;;;6116746;23;20017;-84
2023/10/21 13:18:43;;;;;;;2.42;0.93;;;15.90;99.90;;;;;;6117065;23;20100;-83
2023/10/21 13:21:09;;;;;;;3.03;0.70;;;15.90;99.90;;;;;;6141227;23;20297;-84
2023/10/21 13:23:35;;;;;;;2.10;0.93;;;15.60;99.90;;;;;;6142412;23;20013;-83
2023/10/21 13:26:06;;;;;;;1.60;0.80;;;15.70;99.90;;;;;;6163366;23;20059;-83
2023/10/21 13:28:36;;;;;;;2.83;1.00;;;15.70;99.90;;;;;;6168286;23;20021;-84
2023/10/21 13:31:02;;;;;;;1.48;0.70;;;15.60;99.90;;;;;;6142764;23;20013;-84
2023/10/21 13:33:28;;;;;;;1.35;0.80;;;15.60;99.90;;;;;;6119927;23;20017;-83
2023/10/21 13:35:54;;;;;;;2.78;0.93;;;15.60;99.90;;;;;;6118874;23;20013;-83
2023/10/21 13:38:21;;;;;;;1.42;0.80;;;15.80;99.90;;;;;;6170103;23;20017;-83
2023/10/21 13:40:50;;;;;;;2.70;0.80;;;15.80;99.90;;;;;;6167771;23;20028;-83
2023/10/21 13:43:17;;;;;;;1.80;0.85;;;15.90;99.90;;;;;;6169864;23;20017;-83
2023/10/21 13:45:43;;;;;;;1.95;0.85;;;16.00;99.90;;;;;;6144488;23;20096;-84
2023/10/21 13:48:09;;;;;;;1.52;0.90;;;15.90;99.90;;;;;;6145399;23;20049;-84
2023/10/21 13:50:36;;;;;;;2.35;0.70;;;16.10;99.90;;;;;;6144577;23;20027;-84
2023/10/21 13:53:12;;;;;;;2.88;1.00;;;16.70;99.90;;;;;;6145745;23;20048;-83
2023/10/21 13:55:42;;;;;;;2.33;0.90;;;18.00;99.90;;;;;;6116854;23;20040;-84
2023/10/21 13:58:09;;;;;;;3.22;1.23;;;17.50;99.90;;;;;;6120431;23;20271;-84
2023/10/21 14:00:36;;;;;;;2.45;0.80;;;17.10;99.90;;;;;;6118935;23;20013;-84
2023/10/21 14:03:09;;;;;;;1.40;0.70;;;17.00;99.90;;;;;;6143690;23;20366;-83
2023/10/21 14:05:44;;;;;;;3.63;1.08;;;17.20;99.90;;;;;;6151893;23;20096;-83
2023/10/21 14:08:24;;;;;;;1.92;0.80;;;18.50;99.90;;;;;;6145686;23;20013;-84
2023/10/21 14:10:51;;;;;;;1.58;0.55;;;19.80;99.90;;;;;;6140007;23;20110;-83
2023/10/21 14:13:28;;;;;;;2.38;0.77;;;20.00;99.90;;;;;;6119895;23;20021;-84
2023/10/21 14:15:54;;;;;;;1.98;0.70;;;21.10;99.90;;;;;;6192870;23;20535;-84
2023/10/21 14:18:22;;;;;;;5.03;0.80;;;20.90;99.90;;;;;;6118874;23;20331;-83
2023/10/21 14:20:51;;;;;;;2.75;0.70;;;21.10;99.90;;;;;;6143630;23;20012;-84
2023/10/21 14:23:22;;;;;;;1.50;0.65;;;21.60;99.90;;;;;;6118870;23;20084;-84
2023/10/21 14:25:49;;;;;;;2.85;0.80;;;21.00;99.90;;;;;;6141978;23;20040;-84
2023/10/21 14:28:16;;;;;;;2.63;0.90;;;19.20;99.90;;;;;;6119187;23;20258;-84
2023/10/21 14:30:46;;;;;;;2.92;0.90;;;18.30;99.90;;;;;;6143442;23;20020;-83
2023/10/21 14:33:15;;;;;;;2.10;0.80;;;17.80;99.90;;;;;;6143854;23;20052;-84
2023/10/21 14:35:42;;;;;;;2.15;0.57;;;17.50;99.90;;;;;;6141678;23;20329;-84
2023/10/21 14:38:09;;;;;;;2.90;0.65;;;18.50;99.90;;;;;;6144522;23;20035;-84
2023/10/21 14:40:36;;;;;;;4.10;0.90;;;19.60;99.90;;;;;;6137726;23;20273;-84
2023/10/21 14:43:05;;;;;;;1.25;0.60;;;20.10;99.90;;;;;;6140940;23;20009;-84
2023/10/21 14:45:34;;;;;;;2.38;0.60;;;19.90;99.90;;;;;;6117097;23;20358;-84
2023/10/21 14:48:01;;;;;;;1.95;0.70;;;18.90;99.90;;;;;;6143875;23;20071;-84
2023/10/21 14:50:29;;;;;;;2.67;0.68;;;18.50;99.90;;;;;;6117416;23;20024;-83
2023/10/21 14:52:56;;;;;;;2.15;0.70;;;18.10;99.90;;;;;;6167191;23;20037;-84
2023/10/21 14:55:22;;;;;;;2.70;0.73;;;18.10;99.90;;;;;;6164516;23;20105;-84
2023/10/21 14:57:48;;;;;;;4.18;0.70;;;17.60;99.90;;;;;;6143415;23;20065;-83
2023/10/21 15:00:22;;;;;;;3.28;0.70;;;17.20;99.90;;;;;;6117760;23;20013;-84
2023/10/21 15:02:57;;;;;;;8.10;1.13;;;16.90;99.90;;;;;;6143943;23;20530;-83
2023/10/21 15:05:23;;;;;;;2.28;1.05;;;17.50;99.90;;;;;;6167176;23;20646;-84
2023/10/21 15:07:49;;;;;;;2.60;0.77;;;17.50;99.90;;;;;;6120547;23;20017;-84
2023/10/21 15:10:17;;;;;;;4.55;0.98;;;17.30;99.90;;;;;;6116508;23;20083;-84
2023/10/21 15:12:49;;;;;;;2.25;0.80;;;17.40;99.90;;;;;;6118657;23;20060;-84
2023/10/21 15:15:17;;;;;;;2.80;0.88;;;17.60;99.90;;;;;;6143430;23;20042;-84
2023/10/21 15:17:52;;;;;;;3.80;1.15;;;18.50;99.90;;;;;;6167651;23;20047;-84
2023/10/21 15:20:18;;;;;;;3.83;0.93;;;18.80;99.90;;;;;;6141028;23;20009;-84
2023/10/21 15:22:46;;;;;;;2.92;1.08;;;17.70;99.90;;;;;;6167188;23;20482;-84
2023/10/21 15:25:14;;;;;;;4.07;1.08;;;16.90;99.90;;;;;;6165180;23;20370;-83
2023/10/21 15:27:56;;;;;;;2.72;0.90;;;16.60;99.90;;;;;;6143830;23;20021;-83
2023/10/21 15:30:22;;;;;;;3.15;1.15;;;16.20;99.90;;;;;;6117173;23;20420;-83
2023/10/21 15:32:50;;;;;;;3.17;0.93;;;16.50;99.90;;;;;;6117219;23;20503;-83
2023/10/21 15:35:16;;;;;;;2.20;1.02;;;16.40;99.90;;;;;;6141217;23;20013;-82
2023/10/21 15:37:43;;;;;;;5.32;1.15;;;16.30;99.90;;;;;;6119267;23;20067;-83
2023/10/21 15:40:18;;;;;;;2.25;0.90;;;16.30;99.90;;;;;;6116339;23;20028;-83
2023/10/21 15:42:45;;;;;;;3.13;1.08;;;16.00;99.90;;;;;;6141902;23;20013;-83
2023/10/21 15:45:12;;;;;;;3.25;0.90;;;15.80;99.90;;;;;;6116746;23;20023;-83
2023/10/21 15:47:38;;;;;;;1.77;1.00;;;15.70;99.90;;;;;;6144077;23;20013;-83
2023/10/21 15:50:04;;;;;;;1.80;1.05;;;15.60;99.90;;;;;;6167608;23;20023;-83
2023/10/21 15:52:31;;;;;;;4.15;1.35;;;15.50;99.90;;;;;;6169479;23;20101;-83
2023/10/21 15:54:58;;;;;;;4.25;1.08;;;15.30;99.90;;;;;;6164625;23;20108;-83
2023/10/21 15:57:24;;;;;;;1.38;0.82;;;15.10;99.90;;;;;;6166655;23;20009;-83
2023/10/21 15:59:52;;;;;;;2.53;1.27;;;14.80;99.90;;;;;;6143274;23;20455;-83
2023/10/21 16:02:18;;;;;;;3.53;1.17;;;14.70;99.90;;;;;;6143733;23;20447;-83
2023/10/21 16:04:44;;;;;;;3.55;1.13;;;14.60;99.90;;;;;;6117943;23;20118;-83